sensor_id;sensor_type;location;lat;lon;timestamp;P1;durP1;ratioP1;P2;durP2;ratioP2
14748;SDS011;7466;53.574;9.976;2023-07-09T00:02:12;4.93;;;3.53;;
14748;SDS011;7466;53.574;9.976;2023-07-09T00:04:40;6.53;;;2.87;;
14748;SDS011;7466;53.574;9.976;2023-07-09T00:07:08;6.53;;;3.00;;
14748;SDS011;7466;53.574;9.976;2023-07-09T00:09:43;4.60;;;3.03;;
14748;SDS011;7466;53.574;9.976;2023-07-09T00:12:15;3.30;;;3.00;;
14748;SDS011;7466;53.574;9.976;2023-07-09T00:14:44;3.47;;;3.17;;
14748;SDS011;7466;53.574;9.976;2023-07-09T00:17:11;4.17;;;3.47;;
14748;SDS011;7466;53.574;9.976;2023-07-09T00:19:44;3.43;;;3.07;;
14748;SDS011;7466;53.574;9.976;2023-07-09T00:22:13;3.40;;;3.03;;
14748;SDS011;7466;53.574;9.976;2023-07-09T00:24:46;3.67;;;3.00;;
14748;SDS011;7466;53.574;9.976;2023-07-09T00:27:16;3.23;;;2.93;;
14748;SDS011;7466;53.574;9.976;2023-07-09T00:29:44;4.00;;;3.30;;
14748;SDS011;7466;53.574;9.976;2023-07-09T00:32:12;4.87;;;3.07;;
14748;SDS011;7466;53.574;9.976;2023-07-09T00:34:41;3.67;;;3.00;;
14748;SDS011;7466;53.574;9.976;2023-07-09T00:37:14;5.40;;;2.87;;
14748;SDS011;7466;53.574;9.976;2023-07-09T00:39:42;3.83;;;3.30;;
14748;SDS011;7466;53.574;9.976;2023-07-09T00:42:14;5.40;;;3.20;;
14748;SDS011;7466;53.574;9.976;2023-07-09T00:44:43;4.03;;;3.23;;
14748;SDS011;7466;53.574;9.976;2023-07-09T00:50:11;4.00;;;3.00;;
14748;SDS011;7466;53.574;9.976;2023-07-09T00:52:45;5.30;;;3.00;;
14748;SDS011;7466;53.574;9.976;2023-07-09T00:55:17;3.40;;;3.10;;
14748;SDS011;7466;53.574;9.976;2023-07-09T00:57:48;5.93;;;2.90;;
14748;SDS011;7466;53.574;9.976;2023-07-09T01:00:22;3.23;;;2.93;;
14748;SDS011;7466;53.574;9.976;2023-07-09T01:02:53;3.53;;;2.97;;
14748;SDS011;7466;53.574;9.976;2023-07-09T01:05:20;3.30;;;3.07;;
14748;SDS011;7466;53.574;9.976;2023-07-09T01:07:48;3.93;;;2.83;;
14748;SDS011;7466;53.574;9.976;2023-07-09T01:10:16;5.50;;;3.23;;
14748;SDS011;7466;53.574;9.976;2023-07-09T01:12:45;3.33;;;3.03;;
14748;SDS011;7466;53.574;9.976;2023-07-09T01:15:15;4.07;;;3.30;;
14748;SDS011;7466;53.574;9.976;2023-07-09T01:17:42;3.27;;;2.80;;
14748;SDS011;7466;53.574;9.976;2023-07-09T01:20:14;3.53;;;3.20;;
14748;SDS011;7466;53.574;9.976;2023-07-09T01:22:47;3.80;;;3.40;;
14748;SDS011;7466;53.574;9.976;2023-07-09T01:25:15;3.77;;;3.07;;
14748;SDS011;7466;53.574;9.976;2023-07-09T01:27:44;3.27;;;2.97;;
14748;SDS011;7466;53.574;9.976;2023-07-09T01:30:13;3.53;;;3.20;;
14748;SDS011;7466;53.574;9.976;2023-07-09T01:32:42;3.83;;;3.17;;
14748;SDS011;7466;53.574;9.976;2023-07-09T01:35:11;4.30;;;3.17;;
14748;SDS011;7466;53.574;9.976;2023-07-09T01:37:40;3.67;;;3.10;;
14748;SDS011;7466;53.574;9.976;2023-07-09T01:40:10;4.50;;;3.00;;
14748;SDS011;7466;53.574;9.976;2023-07-09T01:42:39;4.97;;;3.20;;
14748;SDS011;7466;53.574;9.976;2023-07-09T01:45:07;4.80;;;2.83;;
14748;SDS011;7466;53.574;9.976;2023-07-09T01:47:36;3.70;;;2.80;;
14748;SDS011;7466;53.574;9.976;2023-07-09T01:50:03;4.80;;;3.27;;
14748;SDS011;7466;53.574;9.976;2023-07-09T01:52:31;4.30;;;2.97;;
14748;SDS011;7466;53.574;9.976;2023-07-09T01:54:59;4.33;;;3.30;;
14748;SDS011;7466;53.574;9.976;2023-07-09T01:57:29;5.93;;;3.03;;
14748;SDS011;7466;53.574;9.976;2023-07-09T01:59:59;3.20;;;2.90;;
14748;SDS011;7466;53.574;9.976;2023-07-09T02:02:29;5.93;;;3.10;;
14748;SDS011;7466;53.574;9.976;2023-07-09T02:04:57;3.40;;;3.00;;
14748;SDS011;7466;53.574;9.976;2023-07-09T02:07:24;5.30;;;2.93;;
14748;SDS011;7466;53.574;9.976;2023-07-09T02:09:51;4.37;;;3.20;;
14748;SDS011;7466;53.574;9.976;2023-07-09T02:12:18;3.47;;;2.93;;
14748;SDS011;7466;53.574;9.976;2023-07-09T02:14:47;3.20;;;2.90;;
14748;SDS011;7466;53.574;9.976;2023-07-09T02:17:14;4.23;;;3.30;;
14748;SDS011;7466;53.574;9.976;2023-07-09T02:19:41;3.30;;;3.00;;
14748;SDS011;7466;53.574;9.976;2023-07-09T02:22:08;3.17;;;2.97;;
14748;SDS011;7466;53.574;9.976;2023-07-09T02:24:36;3.30;;;3.00;;
14748;SDS011;7466;53.574;9.976;2023-07-09T02:27:05;3.97;;;2.93;;
14748;SDS011;7466;53.574;9.976;2023-07-09T02:29:35;4.63;;;3.20;;
14748;SDS011;7466;53.574;9.976;2023-07-09T02:32:05;3.30;;;3.00;;
14748;SDS011;7466;53.574;9.976;2023-07-09T02:34:32;3.17;;;2.80;;
14748;SDS011;7466;53.574;9.976;2023-07-09T02:37:00;3.47;;;3.27;;
14748;SDS011;7466;53.574;9.976;2023-07-09T02:39:27;4.30;;;3.70;;
14748;SDS011;7466;53.574;9.976;2023-07-09T02:41:54;3.10;;;2.80;;
14748;SDS011;7466;53.574;9.976;2023-07-09T02:44:21;3.27;;;3.07;;
14748;SDS011;7466;53.574;9.976;2023-07-09T02:46:48;5.77;;;3.27;;
14748;SDS011;7466;53.574;9.976;2023-07-09T02:49:16;4.83;;;3.20;;
14748;SDS011;7466;53.574;9.976;2023-07-09T02:51:43;4.80;;;3.10;;
14748;SDS011;7466;53.574;9.976;2023-07-09T02:54:10;3.40;;;3.10;;
14748;SDS011;7466;53.574;9.976;2023-07-09T02:56:37;5.07;;;3.07;;
14748;SDS011;7466;53.574;9.976;2023-07-09T02:59:04;3.17;;;2.87;;
14748;SDS011;7466;53.574;9.976;2023-07-09T03:01:31;3.40;;;3.10;;
14748;SDS011;7466;53.574;9.976;2023-07-09T03:03:59;3.97;;;3.57;;
14748;SDS011;7466;53.574;9.976;2023-07-09T03:06:29;5.57;;;2.80;;
14748;SDS011;7466;53.574;9.976;2023-07-09T03:08:58;4.90;;;3.57;;
14748;SDS011;7466;53.574;9.976;2023-07-09T03:11:27;3.50;;;3.13;;
14748;SDS011;7466;53.574;9.976;2023-07-09T03:13:56;3.40;;;3.10;;
14748;SDS011;7466;53.574;9.976;2023-07-09T03:16:23;3.77;;;3.37;;
14748;SDS011;7466;53.574;9.976;2023-07-09T03:18:51;3.63;;;3.33;;
14748;SDS011;7466;53.574;9.976;2023-07-09T03:21:19;3.47;;;3.17;;
14748;SDS011;7466;53.574;9.976;2023-07-09T03:23:47;4.13;;;3.40;;
14748;SDS011;7466;53.574;9.976;2023-07-09T03:26:14;4.33;;;3.60;;
14748;SDS011;7466;53.574;9.976;2023-07-09T03:28:41;6.27;;;3.47;;
14748;SDS011;7466;53.574;9.976;2023-07-09T03:31:08;3.40;;;3.10;;
14748;SDS011;7466;53.574;9.976;2023-07-09T03:33:35;4.03;;;3.10;;
14748;SDS011;7466;53.574;9.976;2023-07-09T03:36:02;3.93;;;3.17;;
14748;SDS011;7466;53.574;9.976;2023-07-09T03:38:30;3.40;;;3.20;;
14748;SDS011;7466;53.574;9.976;2023-07-09T03:40:58;4.47;;;3.13;;
14748;SDS011;7466;53.574;9.976;2023-07-09T03:43:25;3.73;;;3.13;;
14748;SDS011;7466;53.574;9.976;2023-07-09T03:45:52;7.10;;;3.37;;
14748;SDS011;7466;53.574;9.976;2023-07-09T03:48:20;3.03;;;2.83;;
14748;SDS011;7466;53.574;9.976;2023-07-09T03:50:47;4.43;;;3.23;;
14748;SDS011;7466;53.574;9.976;2023-07-09T03:53:17;3.27;;;3.07;;
14748;SDS011;7466;53.574;9.976;2023-07-09T03:55:45;3.47;;;3.17;;
14748;SDS011;7466;53.574;9.976;2023-07-09T03:58:18;3.87;;;3.47;;
14748;SDS011;7466;53.574;9.976;2023-07-09T04:00:45;4.30;;;3.23;;
14748;SDS011;7466;53.574;9.976;2023-07-09T04:03:12;4.30;;;3.43;;
14748;SDS011;7466;53.574;9.976;2023-07-09T04:05:39;3.30;;;3.10;;
14748;SDS011;7466;53.574;9.976;2023-07-09T04:08:06;3.53;;;3.20;;
14748;SDS011;7466;53.574;9.976;2023-07-09T04:10:32;3.90;;;3.60;;
14748;SDS011;7466;53.574;9.976;2023-07-09T04:12:59;3.57;;;3.30;;
14748;SDS011;7466;53.574;9.976;2023-07-09T04:15:28;3.60;;;3.30;;
14748;SDS011;7466;53.574;9.976;2023-07-09T04:17:55;3.30;;;3.10;;
14748;SDS011;7466;53.574;9.976;2023-07-09T04:20:22;4.10;;;3.40;;
14748;SDS011;7466;53.574;9.976;2023-07-09T04:22:49;3.37;;;3.07;;
14748;SDS011;7466;53.574;9.976;2023-07-09T04:25:16;3.80;;;3.40;;
14748;SDS011;7466;53.574;9.976;2023-07-09T04:27:43;6.77;;;3.37;;
14748;SDS011;7466;53.574;9.976;2023-07-09T04:30:11;4.93;;;3.60;;
14748;SDS011;7466;53.574;9.976;2023-07-09T04:32:41;3.53;;;3.20;;
14748;SDS011;7466;53.574;9.976;2023-07-09T04:35:09;4.67;;;3.20;;
14748;SDS011;7466;53.574;9.976;2023-07-09T04:37:37;6.60;;;3.57;;
14748;SDS011;7466;53.574;9.976;2023-07-09T04:40:04;3.43;;;3.13;;
14748;SDS011;7466;53.574;9.976;2023-07-09T04:42:35;3.50;;;3.00;;
14748;SDS011;7466;53.574;9.976;2023-07-09T04:45:03;3.20;;;3.00;;
14748;SDS011;7466;53.574;9.976;2023-07-09T04:47:30;3.90;;;3.50;;
14748;SDS011;7466;53.574;9.976;2023-07-09T04:49:58;4.10;;;3.13;;
14748;SDS011;7466;53.574;9.976;2023-07-09T04:52:25;4.60;;;3.30;;
14748;SDS011;7466;53.574;9.976;2023-07-09T04:54:52;3.93;;;2.90;;
14748;SDS011;7466;53.574;9.976;2023-07-09T04:57:19;3.43;;;3.20;;
14748;SDS011;7466;53.574;9.976;2023-07-09T04:59:46;3.77;;;3.47;;
14748;SDS011;7466;53.574;9.976;2023-07-09T05:02:13;4.20;;;3.07;;
14748;SDS011;7466;53.574;9.976;2023-07-09T05:04:40;5.00;;;3.10;;
14748;SDS011;7466;53.574;9.976;2023-07-09T05:07:08;3.50;;;3.27;;
14748;SDS011;7466;53.574;9.976;2023-07-09T05:09:36;3.60;;;3.30;;
14748;SDS011;7466;53.574;9.976;2023-07-09T05:12:03;6.03;;;3.40;;
14748;SDS011;7466;53.574;9.976;2023-07-09T05:14:30;4.80;;;3.30;;
14748;SDS011;7466;53.574;9.976;2023-07-09T05:16:57;5.00;;;3.40;;
14748;SDS011;7466;53.574;9.976;2023-07-09T05:19:24;5.67;;;3.27;;
14748;SDS011;7466;53.574;9.976;2023-07-09T05:21:51;4.43;;;3.10;;
14748;SDS011;7466;53.574;9.976;2023-07-09T05:24:19;3.80;;;2.93;;
14748;SDS011;7466;53.574;9.976;2023-07-09T05:26:45;4.83;;;3.13;;
14748;SDS011;7466;53.574;9.976;2023-07-09T05:29:12;3.73;;;3.43;;
14748;SDS011;7466;53.574;9.976;2023-07-09T05:31:39;3.53;;;3.10;;
14748;SDS011;7466;53.574;9.976;2023-07-09T05:34:07;3.43;;;3.13;;
14748;SDS011;7466;53.574;9.976;2023-07-09T05:36:34;3.23;;;3.03;;
14748;SDS011;7466;53.574;9.976;2023-07-09T05:39:00;3.57;;;3.33;;
14748;SDS011;7466;53.574;9.976;2023-07-09T05:41:29;3.90;;;2.93;;
14748;SDS011;7466;53.574;9.976;2023-07-09T05:43:56;3.83;;;3.53;;
14748;SDS011;7466;53.574;9.976;2023-07-09T05:46:23;3.00;;;2.80;;
14748;SDS011;7466;53.574;9.976;2023-07-09T05:48:50;3.63;;;3.33;;
14748;SDS011;7466;53.574;9.976;2023-07-09T05:51:17;3.50;;;3.23;;
14748;SDS011;7466;53.574;9.976;2023-07-09T05:53:44;3.93;;;3.00;;
14748;SDS011;7466;53.574;9.976;2023-07-09T05:56:11;3.43;;;3.20;;
14748;SDS011;7466;53.574;9.976;2023-07-09T05:58:39;3.50;;;3.20;;
14748;SDS011;7466;53.574;9.976;2023-07-09T06:01:06;3.50;;;3.20;;
14748;SDS011;7466;53.574;9.976;2023-07-09T06:03:33;4.57;;;3.33;;
14748;SDS011;7466;53.574;9.976;2023-07-09T06:05:59;4.00;;;3.63;;
14748;SDS011;7466;53.574;9.976;2023-07-09T06:08:27;4.50;;;3.40;;
14748;SDS011;7466;53.574;9.976;2023-07-09T06:10:55;3.53;;;3.23;;
14748;SDS011;7466;53.574;9.976;2023-07-09T06:13:23;3.50;;;3.20;;
14748;SDS011;7466;53.574;9.976;2023-07-09T06:15:52;3.80;;;3.07;;
14748;SDS011;7466;53.574;9.976;2023-07-09T06:18:20;4.10;;;3.40;;
14748;SDS011;7466;53.574;9.976;2023-07-09T06:20:48;3.47;;;3.17;;
14748;SDS011;7466;53.574;9.976;2023-07-09T06:23:16;4.00;;;3.70;;
14748;SDS011;7466;53.574;9.976;2023-07-09T06:25:43;3.50;;;3.20;;
14748;SDS011;7466;53.574;9.976;2023-07-09T06:28:12;3.57;;;3.27;;
14748;SDS011;7466;53.574;9.976;2023-07-09T06:30:40;4.33;;;3.50;;
14748;SDS011;7466;53.574;9.976;2023-07-09T06:33:09;3.60;;;3.20;;
14748;SDS011;7466;53.574;9.976;2023-07-09T06:35:36;3.50;;;3.20;;
14748;SDS011;7466;53.574;9.976;2023-07-09T06:38:04;4.97;;;3.70;;
14748;SDS011;7466;53.574;9.976;2023-07-09T06:40:31;4.20;;;3.63;;
14748;SDS011;7466;53.574;9.976;2023-07-09T06:43:00;4.07;;;3.70;;
14748;SDS011;7466;53.574;9.976;2023-07-09T06:45:27;3.72;;;3.40;;
14748;SDS011;7466;53.574;9.976;2023-07-09T06:47:54;3.97;;;3.60;;
14748;SDS011;7466;53.574;9.976;2023-07-09T06:50:22;5.75;;;3.22;;
14748;SDS011;7466;53.574;9.976;2023-07-09T06:52:49;3.72;;;3.35;;
14748;SDS011;7466;53.574;9.976;2023-07-09T06:55:16;3.78;;;3.47;;
14748;SDS011;7466;53.574;9.976;2023-07-09T06:57:43;3.75;;;3.45;;
14748;SDS011;7466;53.574;9.976;2023-07-09T07:00:11;3.85;;;3.30;;
14748;SDS011;7466;53.574;9.976;2023-07-09T07:02:38;4.80;;;3.45;;
14748;SDS011;7466;53.574;9.976;2023-07-09T07:05:05;4.00;;;3.70;;
14748;SDS011;7466;53.574;9.976;2023-07-09T07:07:33;3.65;;;3.22;;
14748;SDS011;7466;53.574;9.976;2023-07-09T07:10:00;4.35;;;3.70;;
14748;SDS011;7466;53.574;9.976;2023-07-09T07:12:28;6.10;;;3.35;;
14748;SDS011;7466;53.574;9.976;2023-07-09T07:15:07;5.53;;;3.53;;
14748;SDS011;7466;53.574;9.976;2023-07-09T07:17:35;4.32;;;3.63;;
14748;SDS011;7466;53.574;9.976;2023-07-09T07:20:02;3.85;;;3.55;;
14748;SDS011;7466;53.574;9.976;2023-07-09T07:22:29;3.63;;;3.35;;
14748;SDS011;7466;53.574;9.976;2023-07-09T07:24:57;3.70;;;3.50;;
14748;SDS011;7466;53.574;9.976;2023-07-09T07:27:24;3.83;;;3.53;;
14748;SDS011;7466;53.574;9.976;2023-07-09T07:29:51;5.40;;;3.72;;
14748;SDS011;7466;53.574;9.976;2023-07-09T07:32:18;5.13;;;3.97;;
14748;SDS011;7466;53.574;9.976;2023-07-09T07:34:46;3.67;;;3.35;;
14748;SDS011;7466;53.574;9.976;2023-07-09T07:37:13;4.80;;;3.85;;
14748;SDS011;7466;53.574;9.976;2023-07-09T07:39:40;4.22;;;3.92;;
14748;SDS011;7466;53.574;9.976;2023-07-09T07:42:08;10.43;;;4.10;;
14748;SDS011;7466;53.574;9.976;2023-07-09T07:44:35;4.03;;;3.55;;
14748;SDS011;7466;53.574;9.976;2023-07-09T07:47:02;4.35;;;4.00;;
14748;SDS011;7466;53.574;9.976;2023-07-09T07:49:29;4.00;;;3.70;;
14748;SDS011;7466;53.574;9.976;2023-07-09T07:51:58;3.70;;;3.45;;
14748;SDS011;7466;53.574;9.976;2023-07-09T07:54:28;4.28;;;3.83;;
14748;SDS011;7466;53.574;9.976;2023-07-09T07:56:56;3.78;;;3.50;;
14748;SDS011;7466;53.574;9.976;2023-07-09T07:59:24;6.35;;;3.60;;
14748;SDS011;7466;53.574;9.976;2023-07-09T08:01:52;4.63;;;4.00;;
14748;SDS011;7466;53.574;9.976;2023-07-09T08:04:19;4.03;;;3.63;;
14748;SDS011;7466;53.574;9.976;2023-07-09T08:06:46;4.45;;;3.67;;
14748;SDS011;7466;53.574;9.976;2023-07-09T08:09:13;5.47;;;3.60;;
14748;SDS011;7466;53.574;9.976;2023-07-09T08:11:41;3.83;;;3.63;;
14748;SDS011;7466;53.574;9.976;2023-07-09T08:14:08;6.85;;;3.88;;
14748;SDS011;7466;53.574;9.976;2023-07-09T08:16:37;6.07;;;4.13;;
14748;SDS011;7466;53.574;9.976;2023-07-09T08:19:03;4.10;;;3.80;;
14748;SDS011;7466;53.574;9.976;2023-07-09T08:21:30;5.57;;;3.75;;
14748;SDS011;7466;53.574;9.976;2023-07-09T08:23:57;4.38;;;3.83;;
14748;SDS011;7466;53.574;9.976;2023-07-09T08:26:24;3.90;;;3.60;;
14748;SDS011;7466;53.574;9.976;2023-07-09T08:28:51;4.78;;;3.97;;
14748;SDS011;7466;53.574;9.976;2023-07-09T08:31:18;4.50;;;4.10;;
14748;SDS011;7466;53.574;9.976;2023-07-09T08:33:46;4.53;;;4.10;;
14748;SDS011;7466;53.574;9.976;2023-07-09T08:36:13;5.07;;;3.70;;
14748;SDS011;7466;53.574;9.976;2023-07-09T08:38:40;4.22;;;3.92;;
14748;SDS011;7466;53.574;9.976;2023-07-09T08:41:08;4.38;;;3.97;;
14748;SDS011;7466;53.574;9.976;2023-07-09T08:43:45;4.57;;;4.00;;
14748;SDS011;7466;53.574;9.976;2023-07-09T08:46:20;4.90;;;3.88;;
14748;SDS011;7466;53.574;9.976;2023-07-09T08:48:55;4.20;;;3.90;;
14748;SDS011;7466;53.574;9.976;2023-07-09T08:51:26;4.53;;;4.03;;
14748;SDS011;7466;53.574;9.976;2023-07-09T08:53:59;4.57;;;4.10;;
14748;SDS011;7466;53.574;9.976;2023-07-09T08:56:27;4.40;;;4.07;;
14748;SDS011;7466;53.574;9.976;2023-07-09T08:58:58;4.18;;;3.85;;
14748;SDS011;7466;53.574;9.976;2023-07-09T09:01:28;4.25;;;3.95;;
14748;SDS011;7466;53.574;9.976;2023-07-09T09:04:02;4.75;;;3.92;;
14748;SDS011;7466;53.574;9.976;2023-07-09T09:06:32;4.10;;;3.80;;
14748;SDS011;7466;53.574;9.976;2023-07-09T09:09:02;4.10;;;3.80;;
14748;SDS011;7466;53.574;9.976;2023-07-09T09:11:38;4.07;;;3.50;;
14748;SDS011;7466;53.574;9.976;2023-07-09T09:14:15;4.35;;;4.05;;
14748;SDS011;7466;53.574;9.976;2023-07-09T09:16:48;4.40;;;4.10;;
14748;SDS011;7466;53.574;9.976;2023-07-09T09:19:20;6.43;;;4.03;;
14748;SDS011;7466;53.574;9.976;2023-07-09T09:21:54;7.40;;;4.03;;
14748;SDS011;7466;53.574;9.976;2023-07-09T09:24:27;4.10;;;3.80;;
14748;SDS011;7466;53.574;9.976;2023-07-09T09:26:58;5.72;;;4.50;;
14748;SDS011;7466;53.574;9.976;2023-07-09T09:29:26;4.43;;;4.03;;
14748;SDS011;7466;53.574;9.976;2023-07-09T09:31:53;4.25;;;3.80;;
14748;SDS011;7466;53.574;9.976;2023-07-09T09:34:24;5.15;;;3.80;;
14748;SDS011;7466;53.574;9.976;2023-07-09T09:36:53;4.75;;;3.92;;
14748;SDS011;7466;53.574;9.976;2023-07-09T09:39:20;4.30;;;3.95;;
14748;SDS011;7466;53.574;9.976;2023-07-09T09:41:51;4.57;;;4.10;;
14748;SDS011;7466;53.574;9.976;2023-07-09T09:44:21;4.88;;;3.83;;
14748;SDS011;7466;53.574;9.976;2023-07-09T09:46:51;4.40;;;4.00;;
14748;SDS011;7466;53.574;9.976;2023-07-09T09:49:18;7.60;;;4.13;;
14748;SDS011;7466;53.574;9.976;2023-07-09T09:51:46;4.45;;;4.05;;
14748;SDS011;7466;53.574;9.976;2023-07-09T09:54:16;4.10;;;3.80;;
14748;SDS011;7466;53.574;9.976;2023-07-09T09:56:45;4.25;;;3.95;;
14748;SDS011;7466;53.574;9.976;2023-07-09T09:59:16;4.40;;;4.05;;
14748;SDS011;7466;53.574;9.976;2023-07-09T10:01:45;4.07;;;3.75;;
14748;SDS011;7466;53.574;9.976;2023-07-09T10:04:16;4.32;;;4.03;;
14748;SDS011;7466;53.574;9.976;2023-07-09T10:06:47;4.50;;;4.10;;
14748;SDS011;7466;53.574;9.976;2023-07-09T10:09:24;5.00;;;3.80;;
14748;SDS011;7466;53.574;9.976;2023-07-09T10:12:01;6.15;;;5.13;;
14748;SDS011;7466;53.574;9.976;2023-07-09T10:14:41;4.47;;;4.07;;
14748;SDS011;7466;53.574;9.976;2023-07-09T10:17:17;4.43;;;4.10;;
14748;SDS011;7466;53.574;9.976;2023-07-09T10:19:49;4.90;;;4.38;;
14748;SDS011;7466;53.574;9.976;2023-07-09T10:22:28;5.68;;;3.95;;
14748;SDS011;7466;53.574;9.976;2023-07-09T10:25:10;4.65;;;4.25;;
14748;SDS011;7466;53.574;9.976;2023-07-09T10:27:48;4.75;;;3.83;;
14748;SDS011;7466;53.574;9.976;2023-07-09T10:30:33;5.65;;;4.32;;
14748;SDS011;7466;53.574;9.976;2023-07-09T10:33:09;6.60;;;6.00;;
14748;SDS011;7466;53.574;9.976;2023-07-09T10:35:37;5.10;;;4.10;;
14748;SDS011;7466;53.574;9.976;2023-07-09T10:38:18;4.50;;;4.20;;
14748;SDS011;7466;53.574;9.976;2023-07-09T10:40:53;4.25;;;3.88;;
14748;SDS011;7466;53.574;9.976;2023-07-09T10:43:35;5.90;;;4.20;;
14748;SDS011;7466;53.574;9.976;2023-07-09T10:46:05;5.00;;;4.47;;
14748;SDS011;7466;53.574;9.976;2023-07-09T10:48:39;4.43;;;4.13;;
14748;SDS011;7466;53.574;9.976;2023-07-09T10:51:10;7.13;;;3.90;;
14748;SDS011;7466;53.574;9.976;2023-07-09T10:53:46;5.57;;;4.50;;
14748;SDS011;7466;53.574;9.976;2023-07-09T10:56:17;4.32;;;3.92;;
14748;SDS011;7466;53.574;9.976;2023-07-09T10:58:49;6.05;;;4.50;;
14748;SDS011;7466;53.574;9.976;2023-07-09T11:01:21;4.55;;;4.15;;
14748;SDS011;7466;53.574;9.976;2023-07-09T11:03:55;5.30;;;4.22;;
14748;SDS011;7466;53.574;9.976;2023-07-09T11:06:27;5.20;;;4.70;;
14748;SDS011;7466;53.574;9.976;2023-07-09T11:09:00;5.40;;;4.63;;
14748;SDS011;7466;53.574;9.976;2023-07-09T11:11:30;4.60;;;4.30;;
14748;SDS011;7466;53.574;9.976;2023-07-09T11:14:01;4.43;;;4.10;;
14748;SDS011;7466;53.574;9.976;2023-07-09T11:16:31;4.53;;;4.13;;
14748;SDS011;7466;53.574;9.976;2023-07-09T11:19:02;4.60;;;4.20;;
14748;SDS011;7466;53.574;9.976;2023-07-09T11:24:30;5.30;;;4.38;;
14748;SDS011;7466;53.574;9.976;2023-07-09T11:26:58;4.82;;;4.43;;
14748;SDS011;7466;53.574;9.976;2023-07-09T11:29:26;5.13;;;4.43;;
14748;SDS011;7466;53.574;9.976;2023-07-09T11:31:54;4.90;;;4.30;;
14748;SDS011;7466;53.574;9.976;2023-07-09T11:34:27;4.65;;;4.22;;
14748;SDS011;7466;53.574;9.976;2023-07-09T11:36:56;5.03;;;4.55;;
14748;SDS011;7466;53.574;9.976;2023-07-09T11:39:27;4.88;;;4.40;;
14748;SDS011;7466;53.574;9.976;2023-07-09T11:41:57;4.57;;;4.18;;
14748;SDS011;7466;53.574;9.976;2023-07-09T11:44:25;5.93;;;4.68;;
14748;SDS011;7466;53.574;9.976;2023-07-09T11:47:11;4.97;;;4.55;;
14748;SDS011;7466;53.574;9.976;2023-07-09T11:49:46;4.60;;;4.18;;
14748;SDS011;7466;53.574;9.976;2023-07-09T11:52:17;4.75;;;4.45;;
14748;SDS011;7466;53.574;9.976;2023-07-09T11:54:51;7.50;;;4.05;;
14748;SDS011;7466;53.574;9.976;2023-07-09T11:57:21;5.68;;;4.00;;
14748;SDS011;7466;53.574;9.976;2023-07-09T11:59:48;4.60;;;4.18;;
14748;SDS011;7466;53.574;9.976;2023-07-09T12:02:16;4.40;;;4.13;;
14748;SDS011;7466;53.574;9.976;2023-07-09T12:04:47;4.80;;;4.43;;
14748;SDS011;7466;53.574;9.976;2023-07-09T12:07:15;4.50;;;4.20;;
14748;SDS011;7466;53.574;9.976;2023-07-09T12:09:50;4.55;;;4.25;;
14748;SDS011;7466;53.574;9.976;2023-07-09T12:12:19;5.85;;;4.20;;
14748;SDS011;7466;53.574;9.976;2023-07-09T12:14:51;4.45;;;4.15;;
14748;SDS011;7466;53.574;9.976;2023-07-09T12:17:22;4.50;;;4.10;;
14748;SDS011;7466;53.574;9.976;2023-07-09T12:19:51;5.72;;;4.25;;
14748;SDS011;7466;53.574;9.976;2023-07-09T12:22:19;5.00;;;4.60;;
14748;SDS011;7466;53.574;9.976;2023-07-09T12:24:47;4.63;;;4.32;;
14748;SDS011;7466;53.574;9.976;2023-07-09T12:27:17;4.88;;;4.45;;
14748;SDS011;7466;53.574;9.976;2023-07-09T12:29:47;4.55;;;4.25;;
14748;SDS011;7466;53.574;9.976;2023-07-09T12:32:17;4.70;;;4.32;;
14748;SDS011;7466;53.574;9.976;2023-07-09T12:34:49;6.03;;;4.82;;
14748;SDS011;7466;53.574;9.976;2023-07-09T12:37:17;4.75;;;4.35;;
14748;SDS011;7466;53.574;9.976;2023-07-09T12:39:48;5.05;;;4.47;;
14748;SDS011;7466;53.574;9.976;2023-07-09T12:42:18;6.55;;;4.32;;
14748;SDS011;7466;53.574;9.976;2023-07-09T12:44:48;5.85;;;5.20;;
14748;SDS011;7466;53.574;9.976;2023-07-09T12:47:15;5.22;;;4.80;;
14748;SDS011;7466;53.574;9.976;2023-07-09T12:49:43;7.28;;;5.35;;
14748;SDS011;7466;53.574;9.976;2023-07-09T12:52:14;8.77;;;5.85;;
14748;SDS011;7466;53.574;9.976;2023-07-09T12:54:51;4.97;;;4.57;;
14748;SDS011;7466;53.574;9.976;2023-07-09T12:57:27;5.50;;;4.40;;
14748;SDS011;7466;53.574;9.976;2023-07-09T12:59:58;4.60;;;4.30;;
14748;SDS011;7466;53.574;9.976;2023-07-09T13:02:27;4.93;;;4.53;;
14748;SDS011;7466;53.574;9.976;2023-07-09T13:04:59;5.00;;;4.68;;
14748;SDS011;7466;53.574;9.976;2023-07-09T13:07:30;5.85;;;5.00;;
14748;SDS011;7466;53.574;9.976;2023-07-09T13:10:03;4.93;;;4.53;;
14748;SDS011;7466;53.574;9.976;2023-07-09T13:12:33;4.45;;;4.20;;
14748;SDS011;7466;53.574;9.976;2023-07-09T13:15:01;5.18;;;4.60;;
14748;SDS011;7466;53.574;9.976;2023-07-09T13:17:29;4.22;;;3.92;;
14748;SDS011;7466;53.574;9.976;2023-07-09T13:19:57;4.53;;;4.22;;
14748;SDS011;7466;53.574;9.976;2023-07-09T13:22:25;4.57;;;4.18;;
14748;SDS011;7466;53.574;9.976;2023-07-09T13:24:53;5.18;;;4.78;;
14748;SDS011;7466;53.574;9.976;2023-07-09T13:27:20;4.97;;;4.43;;
14748;SDS011;7466;53.574;9.976;2023-07-09T13:29:48;5.45;;;4.60;;
14748;SDS011;7466;53.574;9.976;2023-07-09T13:32:16;6.22;;;4.38;;
14748;SDS011;7466;53.574;9.976;2023-07-09T13:34:43;4.65;;;4.35;;
14748;SDS011;7466;53.574;9.976;2023-07-09T13:37:11;4.60;;;4.30;;
14748;SDS011;7466;53.574;9.976;2023-07-09T13:39:40;4.88;;;4.38;;
14748;SDS011;7466;53.574;9.976;2023-07-09T13:42:12;6.35;;;4.43;;
14748;SDS011;7466;53.574;9.976;2023-07-09T13:44:41;4.78;;;4.38;;
14748;SDS011;7466;53.574;9.976;2023-07-09T13:47:13;4.78;;;4.47;;
14748;SDS011;7466;53.574;9.976;2023-07-09T13:49:43;6.68;;;4.38;;
14748;SDS011;7466;53.574;9.976;2023-07-09T13:52:13;4.68;;;4.28;;
14748;SDS011;7466;53.574;9.976;2023-07-09T13:54:42;4.68;;;4.28;;
14748;SDS011;7466;53.574;9.976;2023-07-09T13:57:13;4.72;;;4.32;;
14748;SDS011;7466;53.574;9.976;2023-07-09T13:59:41;5.05;;;4.60;;
14748;SDS011;7466;53.574;9.976;2023-07-09T14:02:16;4.63;;;4.30;;
14748;SDS011;7466;53.574;9.976;2023-07-09T14:04:49;6.97;;;4.47;;
14748;SDS011;7466;53.574;9.976;2023-07-09T14:07:21;4.60;;;4.30;;
14748;SDS011;7466;53.574;9.976;2023-07-09T14:09:53;4.75;;;4.40;;
14748;SDS011;7466;53.574;9.976;2023-07-09T14:12:20;4.78;;;4.43;;
14748;SDS011;7466;53.574;9.976;2023-07-09T14:14:48;5.07;;;4.57;;
14748;SDS011;7466;53.574;9.976;2023-07-09T14:17:16;5.03;;;4.40;;
14748;SDS011;7466;53.574;9.976;2023-07-09T14:19:43;6.70;;;4.57;;
14748;SDS011;7466;53.574;9.976;2023-07-09T14:22:18;4.60;;;4.30;;
14748;SDS011;7466;53.574;9.976;2023-07-09T14:24:49;5.25;;;4.60;;
14748;SDS011;7466;53.574;9.976;2023-07-09T14:27:16;5.03;;;4.53;;
14748;SDS011;7466;53.574;9.976;2023-07-09T14:29:44;4.78;;;4.30;;
14748;SDS011;7466;53.574;9.976;2023-07-09T14:32:21;4.53;;;4.22;;
14748;SDS011;7466;53.574;9.976;2023-07-09T14:34:59;5.88;;;4.50;;
14748;SDS011;7466;53.574;9.976;2023-07-09T14:37:27;4.80;;;4.30;;
14748;SDS011;7466;53.574;9.976;2023-07-09T14:39:54;4.70;;;4.30;;
14748;SDS011;7466;53.574;9.976;2023-07-09T14:42:21;5.65;;;4.68;;
14748;SDS011;7466;53.574;9.976;2023-07-09T14:44:48;5.38;;;4.88;;
14748;SDS011;7466;53.574;9.976;2023-07-09T14:47:16;4.95;;;4.65;;
14748;SDS011;7466;53.574;9.976;2023-07-09T14:49:44;5.00;;;4.60;;
14748;SDS011;7466;53.574;9.976;2023-07-09T14:52:11;5.05;;;4.10;;
14748;SDS011;7466;53.574;9.976;2023-07-09T14:54:41;5.13;;;4.63;;
14748;SDS011;7466;53.574;9.976;2023-07-09T14:57:11;4.90;;;4.50;;
14748;SDS011;7466;53.574;9.976;2023-07-09T14:59:45;4.90;;;4.50;;
14748;SDS011;7466;53.574;9.976;2023-07-09T15:02:19;6.50;;;4.20;;
14748;SDS011;7466;53.574;9.976;2023-07-09T15:04:49;4.50;;;4.20;;
14748;SDS011;7466;53.574;9.976;2023-07-09T15:07:16;4.90;;;4.20;;
14748;SDS011;7466;53.574;9.976;2023-07-09T15:09:44;4.82;;;4.45;;
14748;SDS011;7466;53.574;9.976;2023-07-09T15:12:16;4.47;;;4.18;;
14748;SDS011;7466;53.574;9.976;2023-07-09T15:14:45;5.75;;;4.30;;
14748;SDS011;7466;53.574;9.976;2023-07-09T15:17:12;4.70;;;4.28;;
14748;SDS011;7466;53.574;9.976;2023-07-09T15:19:39;6.97;;;4.30;;